Nearby METAR Reports

 

KORD - Chicago O'hare, Illinois, USA
Distance from station: ESE 10mi, 16km
Updated: Wed, 13-Dec-2017 11:51pm CST
Light snow, Overcast
Light snow, Overcast
 Wind from NNW
Wind: NNW 18 mph , 30 km/h, Gust: 28 mph , 44 km/h
Temperature: 28°F , -2°C
Wind Chill: 15°F , -9°C
Dew Point: 19°F , -7°C
Humidity: 69%
Barometer: 29.78 inHg , 1008.5 hPa
Summary: Light Snow
Clouds: Overcast
Visibility: 10 miles , 16 km
Cloud details: Few Clouds 2000 ft
Mostly cloudy 2700 ft
Overcast 3100 ft
2017/12/14 05:51 KORD 140551Z 34016G24KT 10SM -SN FEW020 BKN027 OVC031 M02/M07 A2978 RMK AO2 SLP093 P0000 60000 T10221067 11006 21022 400331056 51052 $
KDPA - Chicago/Dupage, Illinois, USA
Distance from station: SW 11mi, 18km
Updated: Thu, 14-Dec-2017 12:08am CST
Overcast
Overcast
 Wind from NNW
Wind: NNW 14 mph , 22 km/h, Gust: 25 mph , 41 km/h
Temperature: 27°F , -3°C
Wind Chill: 16°F , -9°C
Dew Point: 19°F , -7°C
Humidity: 74%
Barometer: 29.81 inHg , 1009.5 hPa
Clouds: Overcast
Visibility: 10 miles , 16 km
Cloud details: Mostly cloudy 2400 ft
Overcast 3200 ft
2017/12/14 06:08 KDPA 140608Z 33012G22KT 10SM BKN024 OVC032 M03/M07 A2981 RMK AO2 T10331072
 
KPWK - Palwaukee, Illinois, USA
Distance from station: ENE 12mi, 19km
Updated: Wed, 13-Dec-2017 11:52pm CST
Light snow, Overcast
Light snow, Overcast
 Wind from NNW
Wind: NNW 12 mph , 19 km/h, Gust: 21 mph , 33 km/h
Temperature: 27°F , -3°C
Wind Chill: 16°F , -9°C
Dew Point: 21°F , -6°C
Humidity: 80%
Barometer: 29.81 inHg , 1009.5 hPa
Summary: Light Snow
Clouds: Overcast
Visibility: 6 miles , 10 km
Cloud details: Partly cloudy 1800 ft
Overcast 2600 ft
2017/12/14 05:52 KPWK 140552Z AUTO 34010G18KT 6SM -SN SCT018 OVC026 M03/M06 A2981 RMK AO2 SNE00B39 SLP103 P0000 60000 T10281056 11011 21028 400331056 51054
KMDW - Chicago, Illinois, USA
Distance from station: SE 26mi, 41km
Updated: Wed, 13-Dec-2017 11:53pm CST
Light snow, Overcast
Light snow, Overcast
 Wind from NNW
Wind: NNW 12 mph , 19 km/h
Temperature: 28°F , -2°C
Wind Chill: 18°F , -8°C
Dew Point: 21°F , -6°C
Humidity: 74%
Barometer: 29.78 inHg , 1008.5 hPa
Summary: Light Snow
Clouds: Overcast
Visibility: 10 miles , 16 km
Cloud details: Partly cloudy 2300 ft
Mostly cloudy 2800 ft
Overcast 3300 ft
2017/12/14 05:53 KMDW 140553Z 34010KT 10SM -SN SCT023 BKN028 OVC033 M02/M06 A2978 RMK AO2 SLP097 P0000 60000 T10171061 10006 21017 400331056 51052
 
KARR - Chicago/Aurora, Illinois, USA
Distance from station: SW 27mi, 43km
Updated: Wed, 13-Dec-2017 11:52pm CST
Overcast
Overcast
 Wind from NNW
Wind: NNW 17 mph , 28 km/h
Temperature: 27°F , -3°C
Wind Chill: 14°F , -10°C
Dew Point: 19°F , -7°C
Humidity: 74%
Barometer: 29.83 inHg , 1010.2 hPa
Clouds: Overcast
Cloud details: Mostly cloudy 2700 ft
Overcast 3400 ft
2017/12/14 05:52 KARR 140552Z AUTO 33015KT BKN027 OVC034 M03/M07 A2983 RMK AO2 SLP107 T10331067 11006 21033 400331067 51052
KUGN - Waukegan, Illinois, USA
Distance from station: NNE 29mi, 47km
Updated: Thu, 14-Dec-2017 12:05am CST
Overcast
Overcast
 Wind from NNW
Wind: NNW 12 mph , 19 km/h, Gust: 18 mph , 30 km/h
Temperature: 25°F , -4°C
Wind Chill: 14°F , -10°C
Dew Point: 18°F , -8°C
Humidity: 74%
Barometer: 29.81 inHg , 1009.5 hPa
Clouds: Overcast
Visibility: 10 miles , 16 km
Cloud details: Partly cloudy 1600 ft
Overcast 4100 ft
2017/12/14 06:05 KUGN 140605Z AUTO 34010G16KT 10SM SCT016 OVC041 M04/M08 A2981 RMK AO2 T10441083
 
KLOT - Romeoville/Chi, Illinois, USA
Distance from station: S 30mi, 49km
Updated: Thu, 14-Dec-2017 12:15am CST
Overcast
Overcast
 Wind from N
Wind: N 13 mph , 20 km/h, Gust: 21 mph , 33 km/h
Temperature: 28°F , -2°C
Wind Chill: 17°F , -8°C
Dew Point: 19°F , -7°C
Humidity: 69%
Barometer: 29.82 inHg , 1009.8 hPa
Clouds: Overcast
Visibility: 10 miles , 16 km
Cloud details: Overcast 3100 ft
2017/12/14 06:15 KLOT 140615Z AUTO 35011G18KT 10SM OVC031 M02/M07 A2982 RMK AO2 T10251068
KDKB - De Kalb, Illinois, USA
Distance from station: WSW 31mi, 50km
Updated: Thu, 14-Dec-2017 12:15am CST
Mostly cloudy
Mostly cloudy
 Wind from NNW
Wind: NNW 15 mph , 24 km/h, Gust: 18 mph , 30 km/h
Temperature: 21°F , -6°C
Wind Chill: 7°F , -14°C
Dew Point: 18°F , -8°C
Humidity: 86%
Barometer: 29.84 inHg , 1010.5 hPa
Clouds: Mostly cloudy
Visibility: 10 miles , 16 km
Cloud details: Partly cloudy 1500 ft
Partly cloudy 2900 ft
Mostly cloudy 3500 ft
2017/12/14 06:15 KDKB 140615Z AUTO 34013G16KT 10SM SCT015 SCT029 BKN035 M06/M08 A2984 RMK AO2 T10591084
 
KJOT - Joliet, Illinois, USA
Distance from station: S 36mi, 58km
Updated: Thu, 14-Dec-2017 12:15am CST
Overcast
Overcast
 Wind from NNW
Wind: NNW 10 mph , 17 km/h, Gust: 20 mph , 31 km/h
Temperature: 30°F , -1°C
Wind Chill: 21°F , -6°C
Dew Point: 19°F , -7°C
Humidity: 64%
Barometer: 29.83 inHg , 1010.2 hPa
Clouds: Overcast
Visibility: 10 miles , 16 km
Cloud details: Overcast 3300 ft
2017/12/14 06:15 KJOT 140615Z AUTO 34009G17KT 10SM OVC033 M01/M07 A2983 RMK AO2 T10121067
KENW - Kenosha, Wisconsin, USA
Distance from station: NNE 40mi, 64km
Updated: Wed, 13-Dec-2017 11:53pm CST
Partly cloudy
Partly cloudy
 Wind from N
Wind: N 12 mph , 19 km/h, Gust: 22 mph , 35 km/h
Temperature: 21°F , -6°C
Wind Chill: 9°F , -13°C
Dew Point: 16°F , -9°C
Humidity: 80%
Barometer: 29.81 inHg , 1009.5 hPa
Clouds: Partly cloudy
Visibility: 10 miles , 16 km
Cloud details: Few Clouds 1900 ft
Partly cloudy 4300 ft
2017/12/14 05:53 KENW 140553Z AUTO 35010G19KT 10SM FEW019 SCT043 M06/M09 A2981 RMK AO2 SNE09 SLP104 P0000 60000 T10561094 11017 21056 400171067 50033
 
KC09 - Morris-Washburn, Illinois, USA
Distance from station: SSW 45mi, 72km
Updated: Thu, 14-Dec-2017 12:15am CST
Overcast
Overcast
 Wind from NNW
Wind: NNW 9 mph , 15 km/h
Temperature: 27°F , -3°C
Wind Chill: 18°F , -8°C
Dew Point: 19°F , -7°C
Humidity: 74%
Barometer: 29.83 inHg , 1010.2 hPa
Clouds: Overcast
Visibility: 10 miles , 16 km
Cloud details: Partly cloudy 2800 ft
Overcast 3400 ft
2017/12/14 06:15 KC09 140615Z AUTO 33008KT 310V010 10SM SCT028 OVC034 M03/M07 A2983 RMK AO2 T10271066
KBUU - Burlington, Wisconsin, USA
Distance from station: NNW 46mi, 73km
Updated: Wed, 13-Dec-2017 11:50pm CST
Clear
Clear
 Wind from NNW
Wind: NNW 12 mph , 19 km/h
Temperature: 18°F , -8°C
Wind Chill: 5°F , -15°C
Dew Point: 14°F , -10°C
Humidity: 86%
Barometer: 29.84 inHg , 1010.5 hPa
Clouds: Clear
Visibility: 10 miles , 16 km
2017/12/14 05:50 KBUU 140550Z AUTO 34010KT 10SM CLR M08/M10 A2984 RMK AO2 T10761097 11032 21076
 
KGYY - Gary Regional, Indiana, USA
Distance from station: SE 46mi, 74km
Updated: Thu, 14-Dec-2017 12:15am CST
Overcast
Overcast
 Wind from N
Wind: N 21 mph , 33 km/h, Gust: 28 mph , 44 km/h
Temperature: 32°F , 0°C
Wind Chill: 20°F , -7°C
Dew Point: 19°F , -7°C
Humidity: 60%
Barometer: 29.79 inHg , 1008.8 hPa
Clouds: Overcast
Visibility: 10 miles , 16 km
Cloud details: Overcast 3200 ft
2017/12/14 06:15 KGYY 140615Z AUTO 35018G24KT 10SM OVC032 00/M07 A2979 RMK AO2 T00001072
KIGQ - Chicago/Lansing, Illinois, USA
Distance from station: SE 46mi, 74km
Updated: Thu, 14-Dec-2017 12:15am CST
Overcast
Overcast
 Wind from N
Wind: N 17 mph , 28 km/h, Gust: 29 mph , 46 km/h
Temperature: 30°F , -1°C
Wind Chill: 18°F , -8°C
Dew Point: 21°F , -6°C
Humidity: 69%
Barometer: 29.78 inHg , 1008.5 hPa
Clouds: Overcast
Visibility: 10 miles , 16 km
Cloud details: Overcast 2800 ft
2017/12/14 06:15 KIGQ 140615Z AUTO 35015G25KT 10SM OVC028 M01/M06 A2978 RMK AO2 T10131061